createdAt,value
2019-02-20T00:00:30.431Z,7.93
2019-02-20T00:03:04.289Z,6.20
2019-02-20T00:05:37.908Z,7.00
2019-02-20T00:08:11.584Z,7.60
2019-02-20T00:10:45.550Z,8.13
2019-02-20T00:13:19.137Z,8.30
2019-02-20T00:15:52.899Z,7.67
2019-02-20T00:18:26.601Z,6.90
2019-02-20T00:21:12.758Z,6.73
2019-02-20T00:23:46.362Z,5.47
2019-02-20T00:26:29.247Z,6.60
2019-02-20T00:29:02.923Z,5.83
2019-02-20T00:31:36.516Z,5.40
2019-02-20T00:34:14.136Z,5.20
2019-02-20T00:36:47.725Z,5.00
2019-02-20T00:39:28.562Z,6.50
2019-02-20T00:42:02.151Z,4.63
2019-02-20T00:44:40.785Z,4.57
2019-02-20T00:47:16.018Z,5.73
2019-02-20T00:49:49.716Z,5.80
2019-02-20T00:52:27.951Z,6.13
2019-02-20T00:55:01.581Z,5.73
2019-02-20T00:57:35.266Z,5.50
2019-02-20T01:00:16.371Z,6.40
2019-02-20T01:02:49.959Z,6.27
2019-02-20T01:05:23.567Z,6.20
2019-02-20T01:07:57.309Z,6.60
2019-02-20T01:10:30.925Z,5.60
2019-02-20T01:13:07.646Z,6.70
2019-02-20T01:15:41.334Z,5.27
2019-02-20T01:18:17.967Z,5.03
2019-02-20T01:20:51.581Z,6.27
2019-02-20T01:23:43.347Z,6.30
2019-02-20T01:26:16.956Z,6.57
2019-02-20T01:28:56.635Z,5.77
2019-02-20T01:31:30.293Z,6.03
2019-02-20T01:34:03.961Z,6.00
2019-02-20T01:36:37.639Z,6.03
2019-02-20T01:39:11.337Z,6.03
2019-02-20T01:41:44.956Z,5.10
2019-02-20T01:44:18.556Z,6.93
2019-02-20T01:46:55.975Z,5.70
2019-02-20T01:49:29.587Z,5.10
2019-02-20T01:52:03.262Z,5.17
2019-02-20T01:54:40.024Z,4.90
2019-02-20T01:57:19.616Z,4.53
2019-02-20T01:59:53.272Z,5.37
2019-02-20T02:02:27.916Z,5.13
2019-02-20T02:05:20.873Z,4.13
2019-02-20T02:07:54.832Z,4.50
2019-02-20T02:10:28.456Z,3.43
2019-02-20T02:13:05.419Z,3.40
2019-02-20T02:15:39.053Z,3.53
2019-02-20T02:18:12.632Z,3.37
2019-02-20T02:20:47.091Z,3.03
2019-02-20T02:23:20.755Z,3.90
2019-02-20T02:25:57.422Z,3.33
2019-02-20T02:28:31.040Z,4.67
2019-02-20T02:31:04.801Z,4.00
2019-02-20T02:33:38.419Z,4.47
2019-02-20T02:36:12.111Z,4.30
2019-02-20T02:38:45.720Z,3.67
2019-02-20T02:41:19.328Z,4.50
2019-02-20T02:43:52.963Z,4.37
2019-02-20T02:46:26.573Z,4.13
2019-02-20T02:49:03.344Z,3.17
2019-02-20T02:51:37.053Z,3.27
2019-02-20T02:54:10.623Z,3.80
2019-02-20T02:56:44.284Z,3.20
2019-02-20T02:59:30.298Z,3.93
2019-02-20T03:02:04.442Z,3.60
2019-02-20T03:04:38.118Z,3.93
2019-02-20T03:07:14.683Z,3.57
2019-02-20T03:09:48.294Z,4.03
2019-02-20T03:12:21.920Z,3.80
2019-02-20T03:14:55.580Z,4.27
2019-02-20T03:17:29.274Z,4.77
2019-02-20T03:20:03.019Z,5.60
2019-02-20T03:22:36.645Z,6.30
2019-02-20T03:25:10.373Z,6.33
2019-02-20T03:27:43.995Z,5.63
2019-02-20T03:30:22.298Z,6.20
2019-02-20T03:32:55.925Z,7.13
2019-02-20T03:35:29.534Z,7.50
2019-02-20T03:38:03.152Z,7.23
2019-02-20T03:40:36.794Z,7.90
2019-02-20T03:43:10.545Z,6.50
2019-02-20T03:45:44.275Z,6.17
2019-02-20T03:48:17.905Z,7.87
2019-02-20T03:50:51.791Z,7.50
2019-02-20T03:53:28.465Z,6.83
2019-02-20T03:56:02.570Z,8.20
2019-02-20T03:58:36.223Z,7.63
2019-02-20T04:01:18.758Z,8.20
2019-02-20T04:03:52.377Z,6.40
2019-02-20T04:06:26.067Z,7.23
2019-02-20T04:09:00.127Z,7.37
2019-02-20T04:11:40.186Z,8.03
2019-02-20T04:14:13.775Z,7.90
2019-02-20T04:16:47.454Z,8.07
2019-02-20T04:19:21.076Z,8.37
2019-02-20T04:21:54.665Z,9.60
2019-02-20T04:24:28.303Z,8.93
2019-02-20T04:27:04.921Z,9.13
2019-02-20T04:29:38.582Z,8.87
2019-02-20T04:32:24.840Z,9.50
2019-02-20T04:34:58.522Z,8.77
2019-02-20T04:37:32.180Z,9.50
2019-02-20T04:40:06.772Z,8.50
2019-02-20T04:42:40.393Z,9.57
2019-02-20T04:45:14.023Z,9.83
2019-02-20T04:47:47.599Z,10.00
2019-02-20T04:50:21.227Z,11.00
2019-02-20T04:52:54.878Z,11.43
2019-02-20T04:55:28.636Z,10.27
2019-02-20T04:58:19.632Z,10.17
2019-02-20T05:00:53.282Z,10.27
2019-02-20T05:03:26.906Z,11.57
2019-02-20T05:06:00.532Z,9.67
2019-02-20T05:08:34.391Z,12.13
2019-02-20T05:11:08.035Z,9.73
2019-02-20T05:13:45.108Z,9.90
2019-02-20T05:16:18.815Z,10.93
2019-02-20T05:18:57.566Z,10.40
2019-02-20T05:21:31.199Z,10.87
2019-02-20T05:24:11.688Z,11.47
2019-02-20T05:26:45.295Z,11.30
2019-02-20T05:29:22.038Z,10.90
2019-02-20T05:31:55.727Z,11.73
2019-02-20T05:34:36.001Z,10.23
2019-02-20T05:37:09.656Z,11.47
2019-02-20T05:39:47.437Z,11.83
2019-02-20T05:42:21.102Z,11.03
2019-02-20T05:44:58.597Z,11.80
2019-02-20T05:47:32.187Z,11.30
2019-02-20T05:50:13.062Z,12.80
2019-02-20T05:52:46.763Z,10.93
2019-02-20T05:55:20.470Z,11.90
2019-02-20T05:58:00.103Z,11.67
2019-02-20T06:00:33.728Z,13.13
2019-02-20T06:03:11.855Z,12.13
2019-02-20T06:05:45.563Z,11.23
2019-02-20T06:08:19.138Z,11.70
2019-02-20T06:10:52.824Z,11.77
2019-02-20T06:13:30.121Z,12.20
2019-02-20T06:16:03.814Z,13.73
2019-02-20T06:18:37.425Z,12.87
2019-02-20T06:21:11.055Z,11.87
2019-02-20T06:23:50.240Z,12.43
2019-02-20T06:26:23.874Z,12.80
2019-02-20T06:29:00.677Z,11.70
2019-02-20T06:31:34.362Z,13.63
2019-02-20T06:34:20.005Z,13.60
2019-02-20T06:36:53.628Z,12.93
2019-02-20T06:39:27.223Z,13.80
2019-02-20T06:42:00.900Z,11.53
2019-02-20T06:44:34.657Z,12.87
2019-02-20T06:47:08.279Z,12.77
2019-02-20T06:49:41.931Z,12.43
2019-02-20T06:52:15.596Z,11.83
2019-02-20T06:54:53.865Z,12.30
2019-02-20T06:57:26.475Z,12.37
2019-02-20T07:00:00.158Z,13.17
2019-02-20T07:02:35.758Z,12.73
2019-02-20T07:05:30.564Z,11.67
2019-02-20T07:08:19.184Z,10.47
2019-02-20T07:11:16.867Z,13.03
2019-02-20T07:14:19.435Z,11.03
2019-02-20T07:17:02.372Z,12.77
2019-02-20T07:19:47.875Z,11.43
2019-02-20T07:22:27.804Z,11.87
2019-02-20T07:25:22.551Z,12.23
2019-02-20T07:28:18.718Z,12.50
2019-02-20T07:30:52.349Z,11.13
2019-02-20T07:33:26.899Z,12.00
2019-02-20T07:36:00.515Z,11.73
2019-02-20T07:38:41.258Z,11.87
2019-02-20T07:41:14.880Z,11.77
2019-02-20T07:43:48.550Z,11.27
2019-02-20T07:46:23.132Z,11.57
2019-02-20T07:48:56.746Z,11.90
2019-02-20T07:51:48.531Z,11.17
2019-02-20T07:54:22.208Z,11.57
2019-02-20T07:56:58.794Z,12.70
2019-02-20T07:59:32.491Z,11.47
2019-02-20T08:02:06.250Z,12.47
2019-02-20T08:04:39.879Z,13.13
2019-02-20T08:07:15.522Z,12.40
2019-02-20T08:09:49.208Z,11.93
2019-02-20T08:12:22.891Z,12.80
2019-02-20T08:14:56.591Z,12.07
2019-02-20T08:17:30.535Z,11.87
2019-02-20T08:20:05.498Z,12.63
2019-02-20T08:22:51.183Z,12.53
2019-02-20T08:25:24.879Z,13.53
2019-02-20T08:27:58.568Z,13.00
2019-02-20T08:30:32.146Z,12.80
2019-02-20T08:33:05.844Z,12.63
2019-02-20T08:35:51.555Z,13.47
2019-02-20T08:38:25.247Z,12.23
2019-02-20T08:40:58.830Z,12.50
2019-02-20T08:43:32.444Z,13.13
2019-02-20T08:46:06.105Z,12.50
2019-02-20T08:49:00.122Z,12.03
2019-02-20T08:51:33.791Z,11.33
2019-02-20T08:54:07.427Z,11.77
2019-02-20T08:56:41.021Z,12.60
2019-02-20T08:59:14.640Z,11.83
2019-02-20T09:01:51.907Z,12.13
2019-02-20T09:04:25.594Z,12.70
2019-02-20T09:06:59.219Z,11.53
2019-02-20T09:09:44.844Z,12.23
2019-02-20T09:12:18.443Z,11.10
2019-02-20T09:14:52.092Z,10.83
2019-02-20T09:17:26.252Z,12.00
2019-02-20T09:20:00.817Z,11.20
2019-02-20T09:22:35.043Z,10.95
2019-02-20T09:25:19.428Z,10.58
2019-02-20T09:27:59.918Z,10.45
2019-02-20T09:30:34.096Z,10.88
2019-02-20T09:33:21.451Z,10.15
2019-02-20T09:35:55.797Z,10.30
2019-02-20T09:38:30.039Z,10.82
2019-02-20T09:41:04.286Z,11.35
2019-02-20T09:43:42.999Z,12.37
2019-02-20T09:46:17.250Z,11.97
2019-02-20T09:48:51.463Z,11.28
2019-02-20T09:51:25.820Z,12.30
2019-02-20T09:54:00.036Z,13.13
2019-02-20T09:56:34.256Z,13.25
2019-02-20T09:59:11.422Z,14.03
2019-02-20T10:01:45.716Z,14.15
2019-02-20T10:04:22.900Z,15.03
2019-02-20T10:06:57.094Z,14.13
2019-02-20T10:09:40.433Z,13.45
2019-02-20T10:12:14.698Z,13.85
2019-02-20T10:14:49.215Z,14.68
2019-02-20T10:17:23.496Z,13.98
2019-02-20T10:19:57.721Z,13.62
2019-02-20T10:22:32.009Z,13.88
2019-02-20T10:25:08.517Z,14.30
2019-02-20T10:27:42.792Z,13.22
2019-02-20T10:30:19.984Z,13.15
2019-02-20T10:32:54.203Z,13.93
2019-02-20T10:35:31.117Z,13.32
2019-02-20T10:38:05.421Z,13.48
2019-02-20T10:40:39.648Z,13.72
2019-02-20T10:43:13.898Z,13.40
2019-02-20T10:45:48.118Z,14.70
2019-02-20T10:48:22.381Z,13.78
2019-02-20T10:50:56.603Z,13.90
2019-02-20T10:53:30.189Z,12.60
2019-02-20T10:56:11.054Z,13.98
2019-02-20T10:58:45.337Z,13.22
2019-02-20T11:01:19.601Z,13.08
2019-02-20T11:03:53.803Z,13.40
2019-02-20T11:06:28.047Z,12.82
2019-02-20T11:09:05.571Z,12.20
2019-02-20T11:11:39.756Z,12.28
2019-02-20T11:14:13.992Z,12.40
2019-02-20T11:16:48.185Z,11.33
2019-02-20T11:19:31.752Z,12.75
2019-02-20T11:22:06.277Z,11.08
2019-02-20T11:24:47.962Z,11.95
2019-02-20T11:27:22.483Z,11.48
2019-02-20T11:29:56.803Z,10.15
2019-02-20T11:32:30.988Z,11.57
2019-02-20T11:35:08.839Z,11.48
2019-02-20T11:37:43.156Z,10.40
2019-02-20T11:40:17.493Z,10.38
2019-02-20T11:42:51.679Z,11.83
2019-02-20T11:45:26.294Z,11.68
2019-02-20T11:48:00.623Z,13.05
2019-02-20T11:50:35.048Z,12.18
2019-02-20T11:53:12.355Z,12.05
2019-02-20T11:55:46.576Z,11.12
2019-02-20T11:58:20.764Z,10.20
2019-02-20T12:00:55.132Z,12.18
2019-02-20T12:03:29.317Z,12.37
2019-02-20T12:06:03.588Z,12.07
2019-02-20T12:08:37.895Z,12.88
2019-02-20T12:11:12.161Z,12.40
2019-02-20T12:13:46.307Z,13.38
2019-02-20T12:16:32.727Z,14.15
2019-02-20T12:19:06.958Z,13.32
2019-02-20T12:21:41.258Z,14.25
2019-02-20T12:24:15.569Z,13.95
2019-02-20T12:26:49.353Z,13.40
2019-02-20T12:29:22.987Z,12.67
2019-02-20T12:31:56.732Z,14.17
2019-02-20T12:34:30.748Z,14.00
2019-02-20T12:37:04.507Z,14.93
2019-02-20T12:39:38.131Z,14.70
2019-02-20T12:42:13.658Z,14.93
2019-02-20T12:44:47.343Z,15.37
2019-02-20T12:47:21.019Z,14.40
2019-02-20T12:49:55.044Z,15.73
2019-02-20T12:52:31.643Z,14.67
2019-02-20T12:55:07.031Z,15.43
2019-02-20T12:57:40.638Z,14.00
2019-02-20T13:00:18.471Z,15.10
2019-02-20T13:02:52.122Z,14.40
2019-02-20T13:05:25.885Z,15.37
2019-02-20T13:07:59.545Z,15.23
2019-02-20T13:10:39.569Z,15.20
2019-02-20T13:13:13.241Z,15.20
2019-02-20T13:15:55.220Z,16.23
2019-02-20T13:18:28.832Z,15.07
2019-02-20T13:21:08.465Z,16.73
2019-02-20T13:23:42.083Z,16.37
2019-02-20T13:26:31.038Z,16.03
2019-02-20T13:29:04.735Z,16.00
2019-02-20T13:31:42.225Z,16.17
2019-02-20T13:34:15.844Z,15.77
2019-02-20T13:36:49.710Z,15.93
2019-02-20T13:39:23.300Z,16.73
2019-02-20T13:42:01.181Z,16.00
2019-02-20T13:44:34.828Z,16.67
2019-02-20T13:47:12.349Z,16.77
2019-02-20T13:49:46.080Z,16.53
2019-02-20T13:52:19.714Z,16.90
2019-02-20T13:54:58.022Z,17.17
2019-02-20T13:57:31.727Z,16.57
2019-02-20T14:00:08.812Z,16.10
2019-02-20T14:02:42.683Z,16.80
2019-02-20T14:05:16.278Z,16.50
2019-02-20T14:07:59.607Z,16.43
2019-02-20T14:10:33.355Z,17.70
2019-02-20T14:13:08.444Z,16.80
2019-02-20T14:15:42.098Z,16.27
2019-02-20T14:18:15.723Z,17.03
2019-02-20T14:20:49.389Z,17.20
2019-02-20T14:23:23.045Z,17.70
2019-02-20T14:26:05.469Z,17.27
2019-02-20T14:28:39.100Z,18.67
2019-02-20T14:34:17.564Z,18.67
2019-02-20T14:36:51.232Z,17.97
2019-02-20T14:39:30.077Z,18.10
2019-02-20T14:42:04.083Z,17.20
2019-02-20T14:44:42.860Z,16.77
2019-02-20T14:47:16.451Z,17.20
2019-02-20T14:50:11.661Z,17.13
2019-02-20T14:52:45.549Z,16.47
2019-02-20T14:55:23.711Z,16.33
2019-02-20T14:57:57.301Z,17.20
2019-02-20T15:00:34.471Z,15.03
2019-02-20T15:03:08.604Z,16.17
2019-02-20T15:05:43.329Z,16.53
2019-02-20T15:08:16.920Z,15.20
2019-02-20T15:11:02.702Z,16.97
2019-02-20T15:13:36.391Z,16.60
2019-02-20T15:16:22.048Z,16.27
2019-02-20T15:18:55.715Z,16.53
2019-02-20T15:21:31.643Z,17.67
2019-02-20T15:24:05.399Z,17.20
2019-02-20T15:26:39.031Z,17.03
2019-02-20T15:29:12.692Z,17.70
2019-02-20T15:31:51.983Z,18.10
2019-02-20T15:34:25.641Z,15.90
2019-02-20T15:36:59.327Z,17.33
2019-02-20T15:39:33.016Z,16.77
2019-02-20T15:42:06.745Z,16.93
2019-02-20T15:44:43.519Z,17.17
2019-02-20T15:47:17.116Z,18.17
2019-02-20T15:49:56.927Z,16.07
2019-02-20T15:52:30.584Z,17.10
2019-02-20T15:55:11.226Z,17.33
2019-02-20T15:57:44.456Z,19.07
2019-02-20T16:00:38.401Z,16.87
2019-02-20T16:03:12.085Z,16.93
2019-02-20T16:05:45.843Z,16.73
2019-02-20T16:08:19.533Z,16.60
2019-02-20T16:10:53.150Z,17.83
2019-02-20T16:13:27.231Z,17.53
2019-02-20T16:16:00.906Z,16.93
2019-02-20T16:18:38.455Z,17.30
2019-02-20T16:21:12.205Z,16.17
2019-02-20T16:23:46.217Z,17.93
2019-02-20T16:26:19.872Z,18.30
2019-02-20T16:28:53.523Z,18.10
2019-02-20T16:31:39.242Z,18.07
2019-02-20T16:34:12.861Z,18.27
2019-02-20T16:36:46.464Z,18.37
2019-02-20T16:39:20.171Z,18.40
2019-02-20T16:41:53.844Z,19.07
2019-02-20T16:44:28.740Z,17.97
2019-02-20T16:47:02.397Z,18.03
2019-02-20T16:49:43.194Z,18.30
2019-02-20T16:52:16.837Z,17.03
2019-02-20T16:54:50.468Z,17.57
2019-02-20T16:57:24.058Z,18.17
2019-02-20T16:59:58.702Z,17.97
2019-02-20T17:02:33.275Z,18.20
2019-02-20T17:05:13.451Z,17.73
2019-02-20T17:07:48.829Z,18.50
2019-02-20T17:10:22.618Z,17.37
2019-02-20T17:12:57.210Z,17.80
2019-02-20T17:15:31.010Z,18.50
2019-02-20T17:18:17.719Z,17.57
2019-02-20T17:20:51.467Z,18.20
2019-02-20T17:23:34.773Z,17.20
2019-02-20T17:26:08.495Z,17.87
2019-02-20T17:28:42.220Z,17.17
2019-02-20T17:31:15.818Z,18.03
2019-02-20T17:34:26.079Z,18.47
2019-02-20T17:36:59.764Z,20.33
2019-02-20T17:39:36.737Z,18.77
2019-02-20T17:42:10.455Z,18.93
2019-02-20T17:44:47.466Z,17.93
2019-02-20T17:47:21.062Z,18.10
2019-02-20T17:49:58.416Z,17.70
2019-02-20T17:52:32.086Z,18.10
2019-02-20T17:55:28.491Z,17.80
2019-02-20T17:58:02.223Z,17.60
2019-02-20T18:00:38.385Z,18.13
2019-02-20T18:03:25.720Z,17.50
2019-02-20T18:05:59.359Z,17.60
2019-02-20T18:08:42.209Z,18.57
2019-02-20T18:11:15.839Z,17.90
2019-02-20T18:14:01.427Z,18.17
2019-02-20T18:16:35.197Z,18.53
2019-02-20T18:19:08.833Z,18.43
2019-02-20T18:21:42.465Z,18.87
2019-02-20T18:24:29.405Z,17.67
2019-02-20T18:27:03.173Z,18.70
2019-02-20T18:29:37.054Z,17.73
2019-02-20T18:32:10.822Z,18.23
2019-02-20T18:34:46.822Z,17.70
2019-02-20T18:37:22.346Z,19.23
2019-02-20T18:40:00.878Z,19.27
2019-02-20T18:42:36.228Z,19.60
2019-02-20T18:45:13.650Z,19.93
2019-02-20T18:47:47.300Z,19.77
2019-02-20T18:50:20.861Z,20.63
2019-02-20T18:52:59.204Z,21.20
2019-02-20T18:55:32.874Z,23.43
2019-02-20T18:58:06.624Z,23.37
2019-02-20T19:00:41.607Z,23.50
2019-02-20T19:03:15.257Z,26.13
2019-02-20T19:05:49.105Z,24.13
2019-02-20T19:08:43.302Z,26.13
2019-02-20T19:11:55.251Z,25.57
2019-02-20T19:14:48.335Z,26.47
2019-02-20T19:17:27.566Z,28.40
2019-02-20T19:20:04.268Z,27.87
2019-02-20T19:22:55.534Z,28.80
2019-02-20T19:25:59.589Z,28.63
2019-02-20T19:28:55.907Z,30.63
2019-02-20T19:31:47.710Z,30.23
2019-02-20T19:34:39.999Z,30.80
2019-02-20T19:41:00.254Z,30.20
2019-02-20T19:43:37.242Z,32.47
2019-02-20T19:46:36.634Z,32.93
2019-02-20T19:52:50.995Z,32.70
2019-02-20T19:56:10.126Z,33.63
2019-02-20T19:58:59.032Z,34.57
2019-02-20T20:01:58.266Z,33.83
2019-02-20T20:05:09.647Z,36.20
2019-02-20T20:07:49.636Z,32.67
2019-02-20T20:10:32.394Z,35.73
2019-02-20T20:13:24.531Z,37.07
2019-02-20T20:16:25.505Z,35.90
2019-02-20T20:19:18.689Z,38.00
2019-02-20T20:22:04.351Z,36.70
2019-02-20T20:24:43.946Z,37.90
2019-02-20T20:27:32.680Z,38.50
2019-02-20T20:33:29.887Z,38.93
2019-02-20T20:36:09.783Z,41.03
2019-02-20T20:39:05.913Z,39.30
2019-02-20T20:41:51.565Z,41.23
2019-02-20T20:44:34.415Z,38.60
2019-02-20T20:47:19.687Z,40.77
2019-02-20T20:50:13.246Z,39.83
2019-02-20T20:53:01.851Z,40.10
2019-02-20T20:56:06.306Z,41.47
2019-02-20T20:58:48.972Z,41.00
2019-02-20T21:01:37.803Z,39.53
2019-02-20T21:04:23.184Z,42.03
2019-02-20T21:07:31.703Z,38.67
2019-02-20T21:10:11.323Z,38.50
2019-02-20T21:13:04.673Z,39.07
2019-02-20T21:15:56.603Z,36.50
2019-02-20T21:18:53.399Z,37.53
2019-02-20T21:21:51.191Z,38.07
2019-02-20T21:25:00.976Z,37.17
2019-02-20T21:27:53.159Z,35.47
2019-02-20T21:30:57.431Z,37.23
2019-02-20T21:33:53.407Z,35.50
2019-02-20T21:36:42.186Z,36.30
2019-02-20T21:39:30.766Z,37.43
2019-02-20T21:45:23.652Z,38.03
2019-02-20T21:48:15.598Z,34.03
2019-02-20T21:51:04.397Z,34.87
2019-02-20T21:53:44.258Z,35.60
2019-02-20T21:56:29.944Z,36.03
2019-02-20T21:59:23.604Z,35.87
2019-02-20T22:02:03.174Z,35.87
2019-02-20T22:04:42.618Z,35.83
2019-02-20T22:07:39.645Z,35.70
2019-02-20T22:10:46.643Z,35.03
2019-02-20T22:13:42.635Z,33.17
2019-02-20T22:16:44.918Z,33.57
2019-02-20T22:19:40.020Z,32.23
2019-02-20T22:22:19.713Z,30.60
2019-02-20T22:25:16.066Z,31.80
2019-02-20T22:27:55.373Z,29.47
2019-02-20T22:30:54.915Z,29.00
2019-02-20T22:33:31.602Z,26.87
2019-02-20T22:36:37.582Z,27.10
2019-02-20T22:39:37.029Z,25.23
2019-02-20T22:42:34.894Z,24.80
2019-02-20T22:45:33.546Z,22.20
2019-02-20T22:48:27.358Z,22.03
2019-02-20T22:51:16.236Z,22.60
2019-02-20T22:54:04.697Z,21.43
2019-02-20T22:56:50.393Z,21.37
2019-02-20T22:59:30.030Z,19.67
2019-02-20T23:02:27.959Z,20.37
2019-02-20T23:05:33.326Z,20.00
2019-02-20T23:08:33.638Z,19.17
2019-02-20T23:11:32.775Z,18.70
2019-02-20T23:14:35.246Z,17.90
2019-02-20T23:17:09.050Z,16.80
2019-02-20T23:19:48.647Z,17.43
2019-02-20T23:22:22.382Z,16.17
2019-02-20T23:24:56.464Z,16.50
2019-02-20T23:27:30.095Z,16.10
2019-02-20T23:30:12.541Z,15.40
2019-02-20T23:33:01.647Z,16.00
2019-02-20T23:35:35.326Z,15.87
2019-02-20T23:38:13.143Z,15.13
2019-02-20T23:40:46.805Z,15.13
2019-02-20T23:43:20.561Z,14.70
2019-02-20T23:46:03.397Z,14.83
2019-02-20T23:48:37.006Z,15.00
2019-02-20T23:51:10.638Z,15.60
2019-02-20T23:53:47.521Z,15.00
2019-02-20T23:56:21.174Z,16.10
2019-02-20T23:58:54.825Z,14.50
